• Join FlightAware (Why Join?)
  • Login
  • US Flag 
07:56PM EDT


 

Airport Tracker/Info


-or-


 

Live Flight TrackerFlight Track Log ✈ CTL17 ✈ 27-Jun-2013 ✈ KPTK - KMBS

Flight Track Log - Related Links

Times and Time Zones

All times are in EDT time to prevent confusion due to time zone crossing. See the CTL17 flight status page for this flight to view local times or setup timezone preferences in your user account.

Time Position Orientation Groundspeed Altitude Reporting Facility
EDT Latitude Longitude Course Direction KTS MPH feet Rate Location/Type
03:45PM 42.6653 -83.4042 73° East 128 147 1,300  Level Cleveland Center
03:46PM 42.6769 -83.3536 77° East 142 163 2,100 660 Climbing Cleveland Center
03:48PM 42.7366 -83.4034 North  Level Estimated
03:55PM 43.0327 -83.5128 321° Northwest  Level FlightAware Approximate
03:56PM 43.0679 -83.5516 321° Northwest  Level FlightAware Approximate
03:57PM 43.1030 -83.5905 321° Northwest  Level FlightAware Approximate
03:58PM 43.1381 -83.6294 321° Northwest  Level FlightAware Approximate
03:59PM 43.1732 -83.6684 321° Northwest  Level FlightAware Approximate
04:00PM 43.2083 -83.7074 321° Northwest  Level FlightAware Approximate
04:01PM 43.2429 -83.7472 320° Northwest  Level FlightAware Approximate
04:02PM 43.2774 -83.7873 320° Northwest  Level FlightAware Approximate
04:03PM 43.3118 -83.8274 320° Northwest  Level FlightAware Approximate
04:04PM 43.3462 -83.8676 320° Northwest  Level FlightAware Approximate
04:05PM 43.3807 -83.9078 320° Northwest  Level FlightAware Approximate
04:06PM 43.4151 -83.9481 320° Northwest  Level FlightAware Approximate
04:07PM 43.4515 -83.9848 324° Northwest  Level FlightAware Approximate
04:08PM 43.4881 -84.0214 324° Northwest  Level FlightAware Approximate
04:09PM 43.5167 -84.0667 305° West  Level FlightAware Approximate
04:10PM 43.5329 -84.0796 305° West  Level Estimated
04:11PM 43.5329 -84.0796 305° West  Level Estimated
04:12PM 43.5329 -84.0796 305° West  Level Estimated
04:13PM 43.5329 -84.0796 305° West  Level Estimated
04:14PM 43.5329 -84.0796 305° West  Level Estimated
04:15PM 43.5329 -84.0796 305° West  Level Estimated
04:16PM 43.5329 -84.0796 305° West  Level Estimated
04:17PM 43.5329 -84.0796 305° West  Level Estimated